Time;durP1;ratioP1;P1;durP2;ratioP2;P2;SDS_P1;SDS_P2;PMS_P1;PMS_P2;Temp;Humidity;BMP_temperature;BMP_pressure;BME280_temperature;BME280_humidity;BME280_pressure;Samples;Min_cycle;Max_cycle;Signal;HPM_P1;HPM_P2
2021/11/21 00:00:45;;;;;;;622.23;585.90;;;9.40;99.90;;;;;;4378224;32;20187;-62
2021/11/21 00:03:12;;;;;;;623.63;587.20;;;9.40;99.90;;;;;;4380939;32;20243;-62
2021/11/21 00:05:43;;;;;;;606.63;572.00;;;9.40;99.90;;;;;;4380492;32;20165;-62
2021/11/21 00:08:10;;;;;;;618.20;581.20;;;9.40;99.90;;;;;;4376984;32;20260;-62
2021/11/21 00:10:37;;;;;;;605.77;570.23;;;9.40;99.90;;;;;;4382449;32;20328;-62
2021/11/21 00:13:05;;;;;;;622.87;586.77;;;9.40;99.90;;;;;;4381273;32;20231;-62
2021/11/21 00:15:33;;;;;;;611.10;575.40;;;9.40;99.90;;;;;;4379676;32;20229;-62
2021/11/21 00:18:02;;;;;;;598.53;563.37;;;9.40;99.90;;;;;;4379594;32;20167;-62
2021/11/21 00:20:29;;;;;;;626.03;589.07;;;9.40;99.90;;;;;;4378981;32;20173;-62
2021/11/21 00:22:56;;;;;;;625.60;588.80;;;9.40;99.90;;;;;;4382175;32;20242;-62
2021/11/21 00:25:23;;;;;;;614.43;578.43;;;9.30;99.90;;;;;;4381285;32;20144;-62
2021/11/21 00:27:50;;;;;;;623.73;587.50;;;9.30;99.90;;;;;;4380606;32;20194;-62
2021/11/21 00:30:17;;;;;;;640.13;602.40;;;9.30;99.90;;;;;;4378668;32;20194;-62
2021/11/21 00:32:44;;;;;;;628.17;591.93;;;9.40;99.90;;;;;;4386429;32;20172;-62
2021/11/21 00:35:13;;;;;;;661.93;622.53;;;9.30;99.90;;;;;;4390634;32;20157;-62
2021/11/21 00:37:40;;;;;;;617.73;582.10;;;9.40;99.90;;;;;;4390873;32;20165;-62
2021/11/21 00:40:08;;;;;;;627.83;590.80;;;9.40;99.90;;;;;;4390034;32;20201;-62
2021/11/21 00:42:35;;;;;;;623.03;586.60;;;9.40;99.90;;;;;;4387320;32;20291;-62
2021/11/21 00:45:04;;;;;;;601.10;565.40;;;9.40;99.90;;;;;;4375234;32;20234;-62
2021/11/21 00:47:31;;;;;;;605.40;570.63;;;9.40;99.90;;;;;;4381071;32;20146;-62
2021/11/21 00:49:58;;;;;;;613.90;577.87;;;9.40;99.90;;;;;;4385311;32;20166;-62
2021/11/21 00:52:27;;;;;;;607.47;572.83;;;9.40;99.90;;;;;;4382074;32;20201;-62
2021/11/21 00:54:57;;;;;;;621.43;586.40;;;9.40;99.90;;;;;;4385010;32;20164;-62
2021/11/21 00:57:24;;;;;;;618.97;583.93;;;9.50;99.90;;;;;;4377959;32;20144;-62
2021/11/21 00:59:51;;;;;;;613.20;577.73;;;9.50;99.90;;;;;;4381049;32;20215;-62
2021/11/21 01:02:19;;;;;;;610.67;576.13;;;9.40;99.90;;;;;;4384286;32;20254;-62
2021/11/21 01:04:46;;;;;;;631.57;596.27;;;9.50;99.90;;;;;;4384621;32;20148;-62
2021/11/21 01:07:13;;;;;;;629.77;593.60;;;9.40;99.90;;;;;;4368008;32;20427;-62
2021/11/21 01:09:43;;;;;;;609.77;575.10;;;9.40;99.90;;;;;;4383239;32;20168;-62
2021/11/21 01:12:10;;;;;;;609.07;575.43;;;9.50;99.90;;;;;;4387779;32;20148;-62
2021/11/21 01:14:38;;;;;;;618.50;584.27;;;9.40;99.90;;;;;;4377018;32;20183;-62
2021/11/21 01:17:07;;;;;;;622.63;588.23;;;9.50;99.90;;;;;;4389063;32;20144;-61
2021/11/21 01:19:34;;;;;;;603.00;569.13;;;9.40;99.90;;;;;;4380725;32;20240;-62
2021/11/21 01:22:01;;;;;;;611.97;578.20;;;9.40;99.90;;;;;;4388455;32;20217;-63
2021/11/21 01:24:28;;;;;;;622.40;587.80;;;9.30;99.90;;;;;;4374522;32;20159;-62
2021/11/21 01:26:56;;;;;;;621.60;587.67;;;9.30;99.90;;;;;;4383352;32;20167;-62
2021/11/21 01:29:23;;;;;;;606.77;573.17;;;9.40;99.90;;;;;;4380321;32;20150;-61
2021/11/21 01:31:50;;;;;;;606.13;573.07;;;9.20;99.90;;;;;;4389084;32;20611;-62
2021/11/21 01:34:17;;;;;;;604.17;570.97;;;9.20;99.90;;;;;;4383010;32;20213;-62
2021/11/21 01:36:45;;;;;;;599.47;566.63;;;9.20;99.90;;;;;;4383956;32;20166;-61
2021/11/21 01:39:12;;;;;;;603.07;570.23;;;9.10;99.90;;;;;;4378992;32;20615;-62
2021/11/21 01:41:39;;;;;;;611.60;578.00;;;9.10;99.90;;;;;;4379185;32;20179;-62
2021/11/21 01:44:10;;;;;;;619.90;584.77;;;9.20;99.90;;;;;;4381943;32;20618;-62
2021/11/21 01:46:39;;;;;;;611.60;578.17;;;9.20;99.90;;;;;;4386293;32;20158;-62
2021/11/21 01:49:06;;;;;;;613.90;580.07;;;9.20;99.90;;;;;;4377250;32;20577;-62
2021/11/21 01:51:33;;;;;;;629.63;595.17;;;9.30;99.90;;;;;;4378667;32;20194;-62
2021/11/21 01:54:00;;;;;;;619.13;585.00;;;9.30;99.90;;;;;;4377961;32;20228;-62
2021/11/21 01:56:27;;;;;;;608.20;574.63;;;9.30;99.90;;;;;;4385803;32;20221;-61
2021/11/21 01:58:54;;;;;;;623.87;589.23;;;9.40;99.90;;;;;;4377986;32;20220;-62
2021/11/21 02:01:23;;;;;;;617.87;583.97;;;9.30;99.90;;;;;;4379922;32;20187;-62
2021/11/21 02:03:50;;;;;;;601.10;568.27;;;9.30;99.90;;;;;;4367327;32;20179;-62
2021/11/21 02:06:17;;;;;;;597.17;564.20;;;9.30;99.90;;;;;;4386462;32;20147;-62
2021/11/21 02:08:44;;;;;;;623.90;589.43;;;9.30;99.90;;;;;;4385203;32;20157;-62
2021/11/21 02:11:10;;;;;;;614.17;580.67;;;9.30;99.90;;;;;;4379041;32;20727;-62
2021/11/21 02:13:37;;;;;;;612.23;578.70;;;9.30;99.90;;;;;;4390495;32;20615;-61
2021/11/21 02:16:05;;;;;;;607.90;574.43;;;9.20;99.90;;;;;;4380436;32;20484;-62
2021/11/21 02:18:33;;;;;;;616.97;582.27;;;9.20;99.90;;;;;;4384345;32;20171;-62
2021/11/21 02:21:01;;;;;;;631.20;595.50;;;9.20;99.90;;;;;;4376167;32;20182;-62
2021/11/21 02:23:28;;;;;;;601.50;567.87;;;9.30;99.90;;;;;;4377381;32;20216;-62
2021/11/21 02:25:55;;;;;;;611.50;577.27;;;9.30;99.90;;;;;;4376591;32;20220;-62
2021/11/21 02:28:22;;;;;;;601.80;567.27;;;9.30;99.90;;;;;;4377569;32;20185;-62
2021/11/21 02:30:50;;;;;;;628.33;592.60;;;9.20;99.90;;;;;;4377652;32;20149;-61
2021/11/21 02:33:21;;;;;;;624.70;588.73;;;9.20;99.90;;;;;;4370316;32;20571;-62
2021/11/21 02:35:49;;;;;;;594.17;560.40;;;9.30;99.90;;;;;;4379137;32;20185;-62
2021/11/21 02:38:19;;;;;;;612.73;577.63;;;9.30;99.90;;;;;;4385027;32;20166;-62
2021/11/21 02:40:47;;;;;;;619.03;582.83;;;9.20;99.90;;;;;;4382827;32;20176;-61
2021/11/21 02:43:15;;;;;;;617.03;581.23;;;9.20;99.90;;;;;;4385083;32;20504;-62
2021/11/21 02:45:41;;;;;;;607.97;572.10;;;9.20;99.90;;;;;;4392171;32;20162;-61
2021/11/21 02:48:08;;;;;;;612.07;576.43;;;9.20;99.90;;;;;;4391394;32;20229;-62
2021/11/21 02:50:36;;;;;;;607.93;573.07;;;9.30;99.90;;;;;;4392077;32;20521;-61
2021/11/21 02:53:03;;;;;;;622.73;586.30;;;9.20;99.90;;;;;;4391284;32;20226;-62
2021/11/21 02:55:33;;;;;;;618.17;582.73;;;9.30;99.90;;;;;;4391137;32;20224;-62
2021/11/21 02:58:02;;;;;;;609.73;574.53;;;9.20;99.90;;;;;;4388302;32;20213;-62
2021/11/21 03:00:29;;;;;;;618.13;581.93;;;9.30;99.90;;;;;;4382911;32;20164;-62
2021/11/21 03:02:57;;;;;;;616.10;580.70;;;9.20;99.90;;;;;;4390918;32;20592;-61
2021/11/21 03:05:24;;;;;;;610.27;574.23;;;9.20;99.90;;;;;;4383219;32;20155;-63
2021/11/21 03:07:51;;;;;;;627.57;590.47;;;9.20;99.90;;;;;;4390200;32;20224;-62
2021/11/21 03:10:20;;;;;;;600.57;565.30;;;9.20;99.90;;;;;;4389117;32;20266;-62
2021/11/21 03:12:50;;;;;;;605.23;569.80;;;9.20;99.90;;;;;;4390912;32;20194;-62
2021/11/21 03:15:18;;;;;;;614.60;578.60;;;9.20;99.90;;;;;;4389122;32;20183;-62
2021/11/21 03:17:44;;;;;;;619.43;583.37;;;9.30;99.90;;;;;;4386761;32;20172;-62
2021/11/21 03:20:13;;;;;;;601.63;565.50;;;9.30;99.90;;;;;;4391961;32;20219;-62
2021/11/21 03:22:40;;;;;;;624.63;587.93;;;9.30;99.90;;;;;;4391804;32;20187;-62
2021/11/21 03:25:09;;;;;;;612.77;576.20;;;9.30;99.90;;;;;;4390829;32;20182;-62
2021/11/21 03:27:36;;;;;;;625.27;588.53;;;9.30;99.90;;;;;;4390857;32;20168;-62
2021/11/21 03:30:06;;;;;;;602.70;566.43;;;9.30;99.90;;;;;;4390898;32;20195;-62
2021/11/21 03:32:32;;;;;;;602.17;566.87;;;9.30;99.90;;;;;;4390648;32;20556;-62
2021/11/21 03:34:59;;;;;;;622.00;585.13;;;9.30;99.90;;;;;;4390602;32;20610;-62
2021/11/21 03:37:27;;;;;;;622.83;586.33;;;9.20;99.90;;;;;;4383273;32;20180;-62
2021/11/21 03:39:54;;;;;;;609.53;573.73;;;9.20;99.90;;;;;;4379000;32;20179;-61
2021/11/21 03:42:21;;;;;;;620.40;583.67;;;9.30;99.90;;;;;;4389450;32;20219;-62
2021/11/21 03:44:48;;;;;;;599.33;564.30;;;9.30;99.90;;;;;;4389664;32;20156;-61
2021/11/21 03:47:16;;;;;;;603.67;568.00;;;9.30;99.90;;;;;;4388578;32;20231;-62
2021/11/21 03:49:43;;;;;;;602.53;567.90;;;9.40;99.90;;;;;;4385966;32;20163;-61
2021/11/21 03:52:10;;;;;;;609.67;573.90;;;9.40;99.90;;;;;;4391826;32;20229;-61
2021/11/21 03:54:37;;;;;;;610.50;574.10;;;9.40;99.90;;;;;;4391354;32;20160;-61
2021/11/21 03:57:05;;;;;;;609.43;574.23;;;9.30;99.90;;;;;;4389480;32;20179;-61
2021/11/21 03:59:32;;;;;;;588.97;555.13;;;9.30;99.90;;;;;;4389508;32;20223;-62
2021/11/21 04:01:59;;;;;;;588.77;556.00;;;9.30;99.90;;;;;;4391457;32;20562;-61
2021/11/21 04:04:27;;;;;;;595.10;562.83;;;9.30;99.90;;;;;;4379777;32;20167;-61
2021/11/21 04:06:54;;;;;;;592.20;560.67;;;9.30;99.90;;;;;;4391931;32;20231;-61
2021/11/21 04:09:21;;;;;;;606.40;573.77;;;9.30;99.90;;;;;;4389247;32;20180;-61
2021/11/21 04:11:48;;;;;;;587.07;556.13;;;9.30;99.90;;;;;;4391095;32;20234;-61
2021/11/21 04:14:15;;;;;;;582.60;552.27;;;9.40;99.90;;;;;;4389075;32;20215;-61
2021/11/21 04:16:42;;;;;;;579.50;548.67;;;9.50;99.90;;;;;;4390239;32;20148;-61
2021/11/21 04:19:09;;;;;;;592.23;561.77;;;9.40;99.90;;;;;;4391308;32;20181;-62
2021/11/21 04:21:38;;;;;;;577.23;547.47;;;9.50;99.90;;;;;;4388703;32;20228;-61
2021/11/21 04:24:12;;;;;;;589.03;557.97;;;9.50;99.90;;;;;;4391795;32;20219;-61
2021/11/21 04:26:39;;;;;;;593.30;562.80;;;9.50;99.90;;;;;;4391827;32;20144;-62
2021/11/21 04:29:05;;;;;;;595.77;564.90;;;9.60;99.90;;;;;;4392361;32;20176;-61
2021/11/21 04:31:32;;;;;;;589.10;558.93;;;9.60;99.90;;;;;;4392615;32;20188;-61
2021/11/21 04:33:59;;;;;;;577.07;547.63;;;9.60;99.90;;;;;;4394344;32;20683;-63
2021/11/21 04:36:26;;;;;;;579.20;548.97;;;9.60;99.90;;;;;;4394794;32;20182;-61
2021/11/21 04:38:54;;;;;;;593.40;562.60;;;9.60;99.90;;;;;;4394836;32;20180;-61
2021/11/21 04:41:21;;;;;;;586.00;555.77;;;9.50;99.90;;;;;;4392333;32;20215;-61
2021/11/21 04:43:47;;;;;;;597.97;567.47;;;9.50;99.90;;;;;;4340483;32;1709667;-61
2021/11/21 04:46:14;;;;;;;590.23;560.23;;;9.50;99.90;;;;;;4394495;32;20179;-62
2021/11/21 04:48:41;;;;;;;580.80;550.53;;;9.50;99.90;;;;;;4392164;32;20227;-62
2021/11/21 04:51:08;;;;;;;574.67;545.40;;;9.40;99.90;;;;;;4394591;32;20185;-61
2021/11/21 04:53:35;;;;;;;573.67;544.47;;;9.50;99.90;;;;;;4388952;32;20461;-62
2021/11/21 04:56:03;;;;;;;579.73;550.00;;;9.40;99.90;;;;;;4393146;32;20489;-61
2021/11/21 04:58:30;;;;;;;580.33;550.30;;;9.40;99.90;;;;;;4394171;32;20189;-62
2021/11/21 05:00:57;;;;;;;588.47;558.83;;;9.40;99.90;;;;;;4393759;32;20495;-61
2021/11/21 05:03:24;;;;;;;591.87;561.13;;;9.30;99.90;;;;;;4391646;32;20199;-62
2021/11/21 05:05:50;;;;;;;569.57;539.73;;;9.40;99.90;;;;;;4393152;32;20144;-62
2021/11/21 05:08:18;;;;;;;577.50;548.13;;;9.40;99.90;;;;;;4394399;32;20192;-63
2021/11/21 05:10:45;;;;;;;582.67;552.73;;;9.40;99.90;;;;;;4394299;32;20162;-61
2021/11/21 05:13:13;;;;;;;585.20;555.80;;;9.50;99.90;;;;;;4391376;32;20641;-61
2021/11/21 05:15:40;;;;;;;595.17;565.93;;;9.50;99.90;;;;;;4389269;32;20196;-63
2021/11/21 05:18:07;;;;;;;587.10;557.47;;;9.50;99.90;;;;;;4394071;32;20228;-63
2021/11/21 05:20:33;;;;;;;574.30;545.73;;;9.50;99.90;;;;;;4394164;32;20213;-63
2021/11/21 05:23:00;;;;;;;576.27;546.90;;;9.50;99.90;;;;;;4392620;32;20223;-63
2021/11/21 05:25:27;;;;;;;580.57;551.17;;;9.60;99.90;;;;;;4391122;32;20607;-63
2021/11/21 05:27:54;;;;;;;591.00;560.73;;;9.50;99.90;;;;;;4392341;32;20147;-63
2021/11/21 05:30:22;;;;;;;571.03;542.40;;;9.50;99.90;;;;;;4394100;32;20166;-62
2021/11/21 05:32:50;;;;;;;605.93;575.17;;;9.50;99.90;;;;;;4394113;32;20164;-63
2021/11/21 05:35:17;;;;;;;583.83;554.87;;;9.50;99.90;;;;;;4393461;32;20225;-63
2021/11/21 05:37:45;;;;;;;569.97;541.67;;;9.40;99.90;;;;;;4394011;32;20159;-63
2021/11/21 05:40:13;;;;;;;576.90;547.87;;;9.40;99.90;;;;;;4391887;32;20594;-63
2021/11/21 05:42:41;;;;;;;603.07;572.87;;;9.30;99.90;;;;;;4392599;32;20195;-61
2021/11/21 05:45:08;;;;;;;576.57;546.90;;;9.30;99.90;;;;;;4390823;32;20160;-61
2021/11/21 05:47:37;;;;;;;601.07;570.47;;;9.30;99.90;;;;;;4392120;32;20266;-61
2021/11/21 05:50:04;;;;;;;567.83;539.93;;;9.30;99.90;;;;;;4392250;32;20179;-62
2021/11/21 05:52:31;;;;;;;594.23;563.43;;;9.30;99.90;;;;;;4392986;32;20228;-61
2021/11/21 05:54:58;;;;;;;570.93;541.73;;;9.30;99.90;;;;;;4393766;32;20163;-61
2021/11/21 05:57:25;;;;;;;585.53;555.97;;;9.30;99.90;;;;;;4391025;32;20565;-61
2021/11/21 05:59:52;;;;;;;577.70;548.63;;;9.20;99.90;;;;;;4391864;32;20236;-63
2021/11/21 06:02:18;;;;;;;586.87;557.23;;;9.30;99.90;;;;;;4392400;32;20187;-62
2021/11/21 06:04:46;;;;;;;578.90;549.47;;;9.30;99.90;;;;;;4391855;32;20591;-63
2021/11/21 06:07:13;;;;;;;586.70;556.70;;;9.30;99.90;;;;;;4391232;32;20160;-63
2021/11/21 06:09:40;;;;;;;594.97;563.93;;;9.20;99.90;;;;;;4391743;32;20192;-63
2021/11/21 06:12:08;;;;;;;579.93;550.77;;;9.20;99.90;;;;;;4393503;32;20238;-62
2021/11/21 06:14:35;;;;;;;588.27;558.87;;;9.30;99.90;;;;;;4385802;32;20163;-63
2021/11/21 06:17:01;;;;;;;553.83;526.40;;;9.20;99.90;;;;;;4390980;32;20445;-63
2021/11/21 06:19:28;;;;;;;585.27;556.20;;;9.10;99.90;;;;;;4391706;32;20239;-63
2021/11/21 06:21:57;;;;;;;574.03;545.33;;;9.10;99.90;;;;;;4391597;32;20160;-63
2021/11/21 06:24:24;;;;;;;595.40;565.47;;;9.10;99.90;;;;;;4391399;32;20166;-63
2021/11/21 06:26:50;;;;;;;567.07;537.70;;;9.20;99.90;;;;;;4391504;32;20200;-63
2021/11/21 06:29:18;;;;;;;594.87;564.87;;;9.10;99.90;;;;;;4391910;32;20651;-63
2021/11/21 06:31:45;;;;;;;576.63;547.93;;;9.10;99.90;;;;;;4390689;32;20155;-63
2021/11/21 06:34:12;;;;;;;578.30;549.23;;;9.20;99.90;;;;;;4390068;32;20456;-63
2021/11/21 06:36:39;;;;;;;593.43;563.77;;;9.20;99.90;;;;;;4393199;32;20574;-63
2021/11/21 06:39:08;;;;;;;573.47;545.10;;;9.20;99.90;;;;;;4381816;32;20168;-63
2021/11/21 06:41:35;;;;;;;574.57;545.77;;;9.20;99.90;;;;;;4392093;32;20152;-63
2021/11/21 06:44:02;;;;;;;564.20;535.83;;;9.10;99.90;;;;;;4391799;32;20214;-63
2021/11/21 06:46:29;;;;;;;575.07;545.60;;;9.00;99.90;;;;;;4393271;32;20158;-62
2021/11/21 06:48:56;;;;;;;577.87;548.23;;;8.90;99.90;;;;;;4376750;32;20178;-62
2021/11/21 06:51:23;;;;;;;586.67;556.73;;;8.90;99.90;;;;;;4377351;32;20157;-63
2021/11/21 06:53:50;;;;;;;577.47;548.27;;;8.80;99.90;;;;;;4388847;32;20229;-62
2021/11/21 06:56:18;;;;;;;582.67;553.00;;;8.80;99.90;;;;;;4377355;32;20164;-63
2021/11/21 06:58:46;;;;;;;562.20;534.43;;;8.80;99.90;;;;;;4380278;32;20230;-62
2021/11/21 07:01:13;;;;;;;551.63;524.23;;;8.80;99.90;;;;;;4406493;32;20675;-62
2021/11/21 07:03:40;;;;;;;558.40;531.00;;;8.80;99.90;;;;;;4394703;32;20600;-62
2021/11/21 07:06:07;;;;;;;578.37;549.17;;;8.60;99.90;;;;;;4386734;32;20150;-62
2021/11/21 07:08:34;;;;;;;545.53;517.93;;;8.70;99.90;;;;;;4376094;32;20228;-61
2021/11/21 07:11:01;;;;;;;542.60;514.93;;;8.60;99.90;;;;;;4376153;32;20510;-61
2021/11/21 07:13:29;;;;;;;537.57;511.07;;;8.50;99.90;;;;;;4386225;32;20156;-61
2021/11/21 07:15:56;;;;;;;540.87;514.07;;;8.50;99.90;;;;;;4390761;32;20238;-61
2021/11/21 07:18:23;;;;;;;530.63;505.00;;;8.50;99.90;;;;;;4390714;32;20172;-61
2021/11/21 07:20:50;;;;;;;527.60;501.67;;;8.40;99.90;;;;;;4390793;32;20268;-61
2021/11/21 07:23:20;;;;;;;529.33;503.27;;;8.40;99.90;;;;;;4384812;32;20225;-61
2021/11/21 07:25:47;;;;;;;548.77;520.90;;;8.40;99.90;;;;;;4389640;32;20655;-62
2021/11/21 07:28:13;;;;;;;534.97;509.10;;;8.40;99.90;;;;;;4386396;32;20154;-61
2021/11/21 07:30:42;;;;;;;545.00;518.53;;;8.40;99.90;;;;;;4390085;32;20256;-61
2021/11/21 07:33:10;;;;;;;531.90;505.83;;;8.40;99.90;;;;;;4388408;32;20229;-61
2021/11/21 07:35:37;;;;;;;505.30;481.67;;;8.40;99.90;;;;;;4388456;32;20149;-61
2021/11/21 07:38:04;;;;;;;518.70;494.00;;;8.30;99.90;;;;;;4389931;32;20175;-61
2021/11/21 07:40:31;;;;;;;521.90;496.70;;;8.30;99.90;;;;;;4388723;32;20157;-62
2021/11/21 07:42:58;;;;;;;504.77;479.63;;;8.30;99.90;;;;;;4389622;32;20179;-61
2021/11/21 07:45:25;;;;;;;515.53;491.00;;;8.30;99.90;;;;;;4387830;32;20167;-61
2021/11/21 07:47:53;;;;;;;506.03;482.23;;;8.30;99.90;;;;;;4388917;32;20168;-61
2021/11/21 07:50:20;;;;;;;492.20;469.40;;;8.30;99.90;;;;;;4389865;32;20232;-62
2021/11/21 07:52:47;;;;;;;504.17;479.43;;;8.10;99.90;;;;;;4386304;32;20160;-62
2021/11/21 07:55:14;;;;;;;506.37;482.20;;;8.20;99.90;;;;;;4386978;32;20148;-62
2021/11/21 07:57:41;;;;;;;524.00;499.30;;;8.00;99.90;;;;;;4388164;32;20231;-62
2021/11/21 08:00:12;;;;;;;518.77;494.20;;;8.10;99.90;;;;;;4388381;32;20224;-62
2021/11/21 08:02:39;;;;;;;497.47;473.60;;;8.20;99.90;;;;;;4387207;32;20215;-61
2021/11/21 08:05:08;;;;;;;498.37;473.83;;;8.20;99.90;;;;;;4388587;32;20232;-62
2021/11/21 08:07:35;;;;;;;514.97;490.73;;;8.20;99.90;;;;;;4390230;32;20227;-63
2021/11/21 08:10:03;;;;;;;503.60;479.73;;;8.20;99.90;;;;;;4387863;32;20555;-62
2021/11/21 08:12:30;;;;;;;503.70;479.53;;;8.10;99.90;;;;;;4386984;32;20212;-63
2021/11/21 08:14:57;;;;;;;504.93;481.07;;;8.00;99.90;;;;;;4387936;32;20163;-61
2021/11/21 08:17:24;;;;;;;506.80;482.70;;;8.10;99.90;;;;;;4389934;32;20233;-61
2021/11/21 08:19:51;;;;;;;519.40;493.80;;;8.10;99.90;;;;;;4387487;32;20214;-61
2021/11/21 08:22:20;;;;;;;516.40;492.13;;;8.20;99.90;;;;;;4386962;32;20524;-62
2021/11/21 08:24:47;;;;;;;519.60;495.00;;;8.20;99.90;;;;;;4389721;32;20140;-62
2021/11/21 08:27:14;;;;;;;528.13;503.07;;;8.20;99.90;;;;;;4387190;32;20156;-61
2021/11/21 08:29:41;;;;;;;525.50;500.47;;;8.10;99.90;;;;;;4387329;32;20616;-62
2021/11/21 08:32:09;;;;;;;523.70;499.20;;;8.00;99.90;;;;;;4388163;32;20237;-62
2021/11/21 08:34:35;;;;;;;517.80;493.10;;;8.00;99.90;;;;;;4385983;32;20223;-62
2021/11/21 08:37:02;;;;;;;532.30;506.67;;;8.00;99.90;;;;;;4387569;32;20288;-62
2021/11/21 08:39:31;;;;;;;511.33;487.30;;;8.00;99.90;;;;;;4390114;32;20509;-62
2021/11/21 08:41:57;;;;;;;517.10;492.17;;;7.90;99.90;;;;;;4387369;32;20501;-62
2021/11/21 08:44:25;;;;;;;515.77;491.43;;;7.90;99.90;;;;;;4387433;32;20159;-62
2021/11/21 08:46:52;;;;;;;535.60;510.23;;;7.90;99.90;;;;;;4386696;32;20140;-61
2021/11/21 08:49:20;;;;;;;538.67;513.00;;;7.90;99.90;;;;;;4382144;32;20161;-62
2021/11/21 08:51:48;;;;;;;527.07;501.60;;;7.90;99.90;;;;;;4385387;32;20167;-62
2021/11/21 08:54:16;;;;;;;521.70;496.97;;;7.90;99.90;;;;;;4383010;32;20234;-61
2021/11/21 08:56:45;;;;;;;524.83;499.20;;;7.90;99.90;;;;;;4383495;32;20156;-62
2021/11/21 08:59:12;;;;;;;538.83;513.00;;;7.90;99.90;;;;;;4384151;32;20166;-62
2021/11/21 09:01:39;;;;;;;531.60;503.20;;;8.00;99.90;;;;;;4384558;32;20149;-61
2021/11/21 09:04:06;;;;;;;535.90;507.87;;;8.00;99.90;;;;;;4381258;32;20483;-62
2021/11/21 09:06:33;;;;;;;549.40;518.43;;;8.10;99.90;;;;;;4381367;32;20671;-62
2021/11/21 09:09:00;;;;;;;542.23;515.27;;;8.20;99.90;;;;;;4382659;32;20239;-63
2021/11/21 09:11:26;;;;;;;542.97;516.40;;;8.10;99.90;;;;;;4383859;32;20275;-62
2021/11/21 09:13:55;;;;;;;529.70;503.07;;;8.20;99.90;;;;;;4381912;32;20279;-63
2021/11/21 09:16:22;;;;;;;528.87;502.90;;;8.20;99.90;;;;;;4385490;32;20210;-63
2021/11/21 09:18:48;;;;;;;529.03;503.33;;;8.10;99.90;;;;;;4384509;32;20211;-63
2021/11/21 09:21:16;;;;;;;550.87;523.37;;;8.20;99.90;;;;;;4383623;32;20167;-61
2021/11/21 09:23:43;;;;;;;509.93;484.00;;;8.30;99.90;;;;;;4385168;32;20242;-62
2021/11/21 09:26:10;;;;;;;524.20;497.83;;;8.30;99.90;;;;;;4384144;32;20150;-62
2021/11/21 09:28:37;;;;;;;529.27;503.10;;;8.30;99.90;;;;;;4385140;32;20181;-62
2021/11/21 09:31:06;;;;;;;526.97;501.40;;;8.30;99.90;;;;;;4383889;32;20250;-62
2021/11/21 09:33:33;;;;;;;524.23;498.33;;;8.20;99.90;;;;;;4381686;32;20148;-61
2021/11/21 09:36:00;;;;;;;522.87;497.30;;;8.20;99.90;;;;;;4381461;32;20151;-62
2021/11/21 09:38:27;;;;;;;511.47;487.03;;;8.30;99.90;;;;;;4383231;32;20606;-64
2021/11/21 09:40:55;;;;;;;515.40;490.63;;;8.20;99.90;;;;;;4384688;32;20240;-63
2021/11/21 09:43:22;;;;;;;513.97;489.53;;;8.20;99.90;;;;;;4387005;32;20194;-62
2021/11/21 09:45:49;;;;;;;528.30;502.00;;;8.10;99.90;;;;;;4387985;32;20206;-62
2021/11/21 09:48:17;;;;;;;534.20;507.93;;;8.10;99.90;;;;;;4388494;32;20160;-63
2021/11/21 09:50:45;;;;;;;501.23;477.53;;;8.20;99.90;;;;;;4386969;32;20225;-61
2021/11/21 09:53:14;;;;;;;494.77;471.17;;;8.20;99.90;;;;;;4388675;32;20147;-62
2021/11/21 09:55:41;;;;;;;476.93;454.20;;;8.30;99.90;;;;;;4388699;32;20224;-64
2021/11/21 09:58:08;;;;;;;493.10;470.10;;;8.40;99.90;;;;;;4389387;32;20219;-63
2021/11/21 10:00:36;;;;;;;505.33;480.70;;;8.40;99.90;;;;;;4389287;32;20217;-63
2021/11/21 10:03:05;;;;;;;485.10;461.57;;;8.40;99.90;;;;;;4389106;32;20157;-62
2021/11/21 10:05:35;;;;;;;486.83;463.93;;;8.50;99.90;;;;;;4389944;32;20217;-62
2021/11/21 10:08:07;;;;;;;487.80;465.60;;;8.50;99.90;;;;;;4393619;32;20207;-62
2021/11/21 10:10:42;;;;;;;485.53;462.73;;;8.60;99.90;;;;;;4386692;32;20156;-62
2021/11/21 10:13:34;;;;;;;481.07;458.83;;;8.70;99.90;;;;;;4388481;32;20163;-61
2021/11/21 10:16:21;;;;;;;467.63;444.67;;;8.80;99.90;;;;;;4389717;32;20606;-62
2021/11/21 10:18:51;;;;;;;472.23;450.17;;;8.70;99.90;;;;;;4388382;32;20168;-63
2021/11/21 10:21:22;;;;;;;474.63;452.20;;;8.80;99.90;;;;;;4390992;32;20156;-64
2021/11/21 10:23:49;;;;;;;473.60;451.23;;;8.80;99.90;;;;;;4392550;32;20149;-62
2021/11/21 10:26:21;;;;;;;498.27;475.13;;;8.90;99.90;;;;;;4389168;32;20534;-63
2021/11/21 10:28:48;;;;;;;484.27;461.47;;;8.80;99.90;;;;;;4386916;32;20154;-63
2021/11/21 10:31:18;;;;;;;471.57;449.63;;;8.90;99.90;;;;;;4385383;32;20182;-62
2021/11/21 10:33:48;;;;;;;468.23;446.73;;;8.90;99.90;;;;;;4387584;32;20167;-62
2021/11/21 10:36:20;;;;;;;476.83;454.97;;;9.00;99.90;;;;;;4386694;32;20171;-61
2021/11/21 10:38:50;;;;;;;456.10;434.53;;;9.10;99.90;;;;;;4388514;32;20149;-61
2021/11/21 10:41:24;;;;;;;492.30;469.30;;;9.30;99.90;;;;;;4386219;32;20167;-61
2021/11/21 10:44:00;;;;;;;474.30;452.47;;;9.20;99.90;;;;;;4389628;32;20189;-62
2021/11/21 10:46:31;;;;;;;426.03;406.87;;;9.30;99.90;;;;;;4388301;32;20187;-63
2021/11/21 10:49:27;;;;;;;466.60;445.03;;;9.40;99.90;;;;;;4387867;32;20594;-64
2021/11/21 10:52:22;;;;;;;460.93;439.53;;;9.30;99.90;;;;;;4388766;32;20153;-61
2021/11/21 10:54:51;;;;;;;407.93;390.27;;;9.40;99.90;;;;;;4372642;32;20187;-63
2021/11/21 10:57:19;;;;;;;426.13;407.47;;;9.40;99.90;;;;;;4372976;32;20944;-61
2021/11/21 10:59:49;;;;;;;386.17;369.03;;;9.30;99.90;;;;;;4368426;32;20694;-62
2021/11/21 11:02:20;;;;;;;348.27;332.97;;;9.40;99.90;;;;;;4366656;32;20208;-62
2021/11/21 11:04:59;;;;;;;427.60;408.30;;;9.40;99.90;;;;;;4365435;32;20204;-62
2021/11/21 11:07:29;;;;;;;406.23;388.33;;;9.40;99.90;;;;;;4363223;32;20246;-63
2021/11/21 11:09:57;;;;;;;349.13;334.47;;;9.40;99.90;;;;;;4374609;32;20162;-64
2021/11/21 11:12:25;;;;;;;383.47;366.97;;;9.50;99.90;;;;;;4374543;32;20206;-63
2021/11/21 11:14:56;;;;;;;305.00;292.03;;;9.40;99.90;;;;;;4374783;32;20191;-62
2021/11/21 11:17:25;;;;;;;315.33;301.97;;;9.50;99.90;;;;;;4372721;32;20204;-62
2021/11/21 11:19:56;;;;;;;326.87;313.13;;;9.60;99.90;;;;;;4371921;32;20674;-61
2021/11/21 11:22:24;;;;;;;282.30;270.77;;;9.70;99.90;;;;;;4369467;32;20234;-62
2021/11/21 11:24:55;;;;;;;298.27;285.47;;;9.70;99.90;;;;;;4364680;32;20230;-62
2021/11/21 11:27:29;;;;;;;325.83;311.70;;;9.70;99.90;;;;;;4372594;32;20295;-63
2021/11/21 11:29:57;;;;;;;281.43;269.53;;;9.80;99.90;;;;;;4372178;32;20231;-61
2021/11/21 11:32:36;;;;;;;270.70;259.37;;;9.80;99.90;;;;;;4386853;32;20144;-62
2021/11/21 11:35:04;;;;;;;282.37;270.10;;;9.90;99.90;;;;;;4388974;32;20280;-62
2021/11/21 11:37:43;;;;;;;266.23;254.97;;;9.90;99.90;;;;;;4388005;32;20581;-62
2021/11/21 11:40:52;;;;;;;272.80;261.70;;;9.80;99.90;;;;;;4387009;32;20223;-62
2021/11/21 11:43:44;;;;;;;270.73;259.57;;;9.90;99.90;;;;;;4389466;32;20181;-63
2021/11/21 11:46:29;;;;;;;273.40;261.70;;;9.80;99.90;;;;;;4390063;32;21031;-63
2021/11/21 11:48:58;;;;;;;276.13;264.30;;;9.90;99.90;;;;;;4388650;32;20163;-63
2021/11/21 11:51:51;;;;;;;284.70;272.63;;;9.90;99.90;;;;;;4390453;32;20150;-62
2021/11/21 11:54:29;;;;;;;262.23;250.77;;;10.00;99.90;;;;;;4387532;32;20174;-62
2021/11/21 11:57:00;;;;;;;282.53;270.40;;;9.90;99.90;;;;;;4382345;32;20207;-62
2021/11/21 11:59:32;;;;;;;305.57;292.33;;;9.90;99.90;;;;;;4389241;32;20151;-63
2021/11/21 12:02:04;;;;;;;310.43;296.93;;;9.90;99.90;;;;;;4387695;32;20148;-63
2021/11/21 12:04:55;;;;;;;303.10;290.90;;;9.90;99.90;;;;;;4389271;32;20165;-63
2021/11/21 12:07:28;;;;;;;270.53;258.70;;;9.90;99.90;;;;;;4390307;32;20237;-62
2021/11/21 12:09:58;;;;;;;272.17;260.40;;;10.00;99.90;;;;;;4389250;32;20176;-62
2021/11/21 12:13:07;;;;;;;309.33;295.97;;;10.00;99.90;;;;;;4390331;32;20155;-62
2021/11/21 12:15:59;;;;;;;283.80;272.23;;;10.00;99.90;;;;;;4389213;32;20162;-62
2021/11/21 12:18:52;;;;;;;283.17;270.93;;;10.00;99.90;;;;;;4378996;32;20175;-64
2021/11/21 12:21:38;;;;;;;280.30;268.20;;;9.80;99.90;;;;;;4390191;32;20144;-62
2021/11/21 12:24:07;;;;;;;278.37;266.63;;;9.80;99.90;;;;;;4389985;32;20195;-62
2021/11/21 12:26:39;;;;;;;268.30;257.10;;;9.80;99.90;;;;;;4391193;32;20191;-62